Time;durP1;ratioP1;P1;durP2;ratioP2;P2;SDS_P1;SDS_P2;PMS_P1;PMS_P2;Temp;Humidity;BMP_temperature;BMP_pressure;BME280_temperature;BME280_humidity;BME280_pressure;Samples;Min_cycle;Max_cycle;Signal;HPM_P1;HPM_P2
2023/10/05 00:04:28;;;;;;;11.03;3.80;;;13.60;1.00;;;;;;5053061;28;20721;-76
2023/10/05 00:06:54;;;;;;;12.97;4.07;;;13.60;1.00;;;;;;5052574;28;20175;-76
2023/10/05 00:09:21;;;;;;;12.80;3.77;;;13.60;1.00;;;;;;5051365;28;20179;-76
2023/10/05 00:11:47;;;;;;;9.23;3.80;;;13.60;1.00;;;;;;5052421;28;20191;-77
2023/10/05 00:14:12;;;;;;;11.83;3.73;;;13.60;1.00;;;;;;5051083;28;20175;-77
2023/10/05 00:16:43;;;;;;;9.30;4.30;;;13.60;1.00;;;;;;5051116;28;20198;-76
2023/10/05 00:19:15;;;;;;;11.47;4.00;;;13.50;6.70;;;;;;5052776;28;20607;-77
2023/10/05 00:21:51;;;;;;;11.40;3.17;;;13.60;99.90;;;;;;5052515;28;20184;-77
2023/10/05 00:24:29;;;;;;;12.50;4.07;;;13.60;64.20;;;;;;5052534;28;20151;-77
2023/10/05 00:26:56;;;;;;;10.93;3.40;;;13.60;1.00;;;;;;5052559;28;20156;-77
2023/10/05 00:29:29;;;;;;;7.97;3.53;;;13.50;1.00;;;;;;5051504;28;20168;-77
2023/10/05 00:31:59;;;;;;;10.70;3.67;;;13.50;1.00;;;;;;5052064;28;20187;-76
2023/10/05 00:34:25;;;;;;;9.77;3.13;;;13.50;1.00;;;;;;5050306;28;20182;-77
2023/10/05 00:36:52;;;;;;;13.93;4.47;;;13.60;1.00;;;;;;5051310;28;20168;-76
2023/10/05 00:39:20;;;;;;;11.67;3.73;;;13.50;1.00;;;;;;5052108;28;20160;-77
2023/10/05 00:41:58;;;;;;;10.93;3.30;;;13.50;1.00;;;;;;5052061;28;20188;-76
2023/10/05 00:44:24;;;;;;;13.03;3.67;;;13.50;1.00;;;;;;5051961;28;20154;-77
2023/10/05 00:46:50;;;;;;;9.87;3.80;;;13.50;1.00;;;;;;5052289;28;20163;-76
2023/10/05 00:49:19;;;;;;;11.57;3.80;;;13.60;4.70;;;;;;5051748;28;20228;-77
2023/10/05 00:54:44;;;;;;;15.53;4.03;;;13.50;1.00;;;;;;5051515;28;20228;-77
2023/10/05 00:57:14;;;;;;;9.13;3.30;;;13.50;1.00;;;;;;5050657;28;20175;-76
2023/10/05 00:59:45;;;;;;;9.67;3.27;;;13.50;1.00;;;;;;5052180;28;20250;-76
2023/10/05 01:02:20;;;;;;;10.03;3.43;;;13.50;1.00;;;;;;5051877;28;20198;-77
2023/10/05 01:07:18;;;;;;;10.53;3.83;;;13.50;1.00;;;;;;5052256;28;20178;-77
2023/10/05 01:14:52;;;;;;;9.67;2.80;;;13.50;1.00;;;;;;5052010;28;20623;-76
2023/10/05 01:17:20;;;;;;;9.10;3.00;;;13.50;1.00;;;;;;5051971;28;20159;-76
2023/10/05 01:19:50;;;;;;;10.17;3.57;;;13.50;1.00;;;;;;5051760;28;20249;-75
2023/10/05 01:22:16;;;;;;;12.37;3.73;;;13.50;1.00;;;;;;5051918;28;20223;-76
2023/10/05 01:24:45;;;;;;;13.97;4.60;;;13.50;1.00;;;;;;5051647;28;20172;-77
2023/10/05 01:27:11;;;;;;;13.00;3.60;;;13.40;1.00;;;;;;5050604;28;20600;-77
2023/10/05 01:29:36;;;;;;;11.30;3.40;;;13.40;1.00;;;;;;5051482;28;20225;-76
2023/10/05 01:32:02;;;;;;;8.30;3.20;;;13.40;1.00;;;;;;5051406;28;20564;-76
2023/10/05 01:34:28;;;;;;;8.83;3.20;;;13.40;1.00;;;;;;5050249;28;20163;-77
2023/10/05 01:36:54;;;;;;;11.40;3.37;;;13.40;1.00;;;;;;5050261;28;20635;-77
2023/10/05 01:39:21;;;;;;;12.37;3.33;;;13.40;1.00;;;;;;5051596;28;20174;-76
2023/10/05 01:41:48;;;;;;;8.43;3.03;;;13.40;1.00;;;;;;5050132;28;20188;-77
2023/10/05 01:44:14;;;;;;;9.13;3.30;;;13.40;1.00;;;;;;5051503;28;20164;-76
2023/10/05 01:46:40;;;;;;;9.83;3.10;;;13.40;1.00;;;;;;5053679;28;20773;-76
2023/10/05 01:49:06;;;;;;;14.50;3.50;;;13.40;1.00;;;;;;5055148;28;20603;-76
2023/10/05 01:51:31;;;;;;;7.90;2.93;;;13.40;11.70;;;;;;5054999;28;20176;-77
2023/10/05 01:54:10;;;;;;;8.33;3.27;;;13.40;78.00;;;;;;5055024;28;20164;-77
2023/10/05 01:56:37;;;;;;;7.90;2.90;;;13.40;46.60;;;;;;5055523;28;20144;-76
2023/10/05 01:59:06;;;;;;;10.63;3.60;;;13.30;99.90;;;;;;5053696;28;20176;-76
2023/10/05 02:01:36;;;;;;;8.50;3.10;;;13.30;29.30;;;;;;5054958;28;20164;-76
2023/10/05 02:04:02;;;;;;;8.70;3.07;;;13.40;99.90;;;;;;5055207;28;20167;-76
2023/10/05 02:06:28;;;;;;;7.47;2.73;;;13.30;99.90;;;;;;5054797;28;20176;-75
2023/10/05 02:08:54;;;;;;;10.53;2.80;;;13.30;99.90;;;;;;5055018;28;20206;-76
2023/10/05 02:11:24;;;;;;;11.90;3.00;;;13.30;99.90;;;;;;5054655;28;20579;-76
2023/10/05 02:13:52;;;;;;;8.60;2.50;;;13.30;99.90;;;;;;5054913;28;20188;-77
2023/10/05 02:16:20;;;;;;;8.13;2.60;;;13.30;99.90;;;;;;5053398;28;20178;-76
2023/10/05 02:18:47;;;;;;;12.70;3.07;;;13.30;99.90;;;;;;5054946;28;20177;-76
2023/10/05 02:21:29;;;;;;;9.63;2.53;;;13.30;99.90;;;;;;5053337;28;20183;-76
2023/10/05 02:23:57;;;;;;;9.37;2.90;;;13.30;99.90;;;;;;5053252;28;20168;-77
2023/10/05 02:26:24;;;;;;;10.67;3.07;;;13.30;99.90;;;;;;5053194;28;20175;-76
2023/10/05 02:28:51;;;;;;;11.97;3.00;;;13.30;1.00;;;;;;5054563;28;20522;-76
2023/10/05 02:31:20;;;;;;;9.17;2.93;;;13.30;1.00;;;;;;5053141;28;20206;-77
2023/10/05 02:33:45;;;;;;;8.87;2.53;;;13.30;1.00;;;;;;5053009;28;20241;-76
2023/10/05 02:36:11;;;;;;;10.83;2.80;;;13.30;1.00;;;;;;5054391;28;20257;-76
2023/10/05 02:38:38;;;;;;;10.27;2.77;;;13.30;1.00;;;;;;5054487;28;20634;-76
2023/10/05 02:41:08;;;;;;;9.10;3.60;;;13.30;1.00;;;;;;5054314;28;20187;-76
2023/10/05 02:43:40;;;;;;;7.67;2.97;;;13.30;1.00;;;;;;5054553;28;20264;-77
2023/10/05 02:46:10;;;;;;;7.83;2.80;;;13.30;1.00;;;;;;5052834;28;20238;-76
2023/10/05 02:48:39;;;;;;;9.97;2.83;;;13.30;1.00;;;;;;5054296;28;20156;-77
2023/10/05 02:51:05;;;;;;;10.30;2.63;;;13.30;1.00;;;;;;5052780;28;20176;-76
2023/10/05 02:53:40;;;;;;;6.87;2.40;;;13.30;1.00;;;;;;5053833;28;20195;-76
2023/10/05 02:56:16;;;;;;;8.03;2.77;;;13.30;1.00;;;;;;5054275;28;20154;-75
2023/10/05 02:58:44;;;;;;;6.43;2.37;;;13.30;1.00;;;;;;5052049;28;20684;-76
2023/10/05 03:01:10;;;;;;;9.47;2.87;;;13.30;1.00;;;;;;5054011;28;20284;-76
2023/10/05 03:03:36;;;;;;;7.87;2.40;;;13.30;1.00;;;;;;5053844;28;20240;-77
2023/10/05 03:06:04;;;;;;;8.63;2.40;;;13.30;1.00;;;;;;5053782;28;20175;-77
2023/10/05 03:08:35;;;;;;;9.33;2.70;;;13.30;1.00;;;;;;5053740;28;20168;-77
2023/10/05 03:11:01;;;;;;;12.57;2.70;;;13.30;1.00;;;;;;5053901;28;20586;-76
2023/10/05 03:13:27;;;;;;;10.57;2.80;;;13.30;1.00;;;;;;5052320;28;20230;-76
2023/10/05 03:15:54;;;;;;;8.93;2.77;;;13.30;1.00;;;;;;5052351;28;20191;-76
2023/10/05 03:18:20;;;;;;;9.53;2.23;;;13.30;1.00;;;;;;5052429;28;20183;-76
2023/10/05 03:20:46;;;;;;;7.43;2.80;;;13.30;1.00;;;;;;5053419;28;20541;-76
2023/10/05 03:23:14;;;;;;;6.93;2.37;;;13.20;1.00;;;;;;5053352;28;20191;-77
2023/10/05 03:25:40;;;;;;;9.63;2.33;;;13.20;1.00;;;;;;5053384;28;20236;-76
2023/10/05 03:28:06;;;;;;;11.67;2.70;;;13.20;1.00;;;;;;5053275;28;20164;-76
2023/10/05 03:30:35;;;;;;;9.10;2.87;;;13.20;1.00;;;;;;5053082;28;20195;-77
2023/10/05 03:33:03;;;;;;;8.90;2.77;;;13.20;1.00;;;;;;5051665;28;20200;-77
2023/10/05 03:35:32;;;;;;;8.40;2.60;;;13.20;1.00;;;;;;5053170;28;20250;-76
2023/10/05 03:37:58;;;;;;;5.93;2.43;;;13.10;1.00;;;;;;5053295;28;20242;-76
2023/10/05 03:40:25;;;;;;;7.20;2.40;;;13.10;1.00;;;;;;5051738;28;20178;-75
2023/10/05 03:42:57;;;;;;;11.23;2.47;;;13.10;14.40;;;;;;5053164;28;20563;-76
2023/10/05 03:45:23;;;;;;;10.13;2.73;;;13.00;28.70;;;;;;5051896;28;20225;-76
2023/10/05 03:47:49;;;;;;;10.43;2.50;;;13.00;78.00;;;;;;5051667;28;20605;-76
2023/10/05 03:50:18;;;;;;;7.70;2.17;;;13.00;89.40;;;;;;5052885;28;20736;-76
2023/10/05 03:52:45;;;;;;;9.80;2.60;;;13.00;99.90;;;;;;5052782;28;20542;-76
2023/10/05 03:55:11;;;;;;;14.00;2.67;;;13.00;99.90;;;;;;5052771;28;20186;-76
2023/10/05 03:57:37;;;;;;;6.90;2.53;;;12.90;99.90;;;;;;5053171;28;20574;-76
2023/10/05 04:00:23;;;;;;;6.30;2.47;;;12.90;99.90;;;;;;5052746;28;20164;-76
2023/10/05 04:02:53;;;;;;;7.60;2.03;;;12.90;99.90;;;;;;5051381;28;20202;-76
2023/10/05 04:05:22;;;;;;;9.53;2.50;;;12.90;99.90;;;;;;5051279;28;20171;-76
2023/10/05 04:07:48;;;;;;;6.40;2.13;;;13.00;99.90;;;;;;5052600;28;20651;-75
2023/10/05 04:10:20;;;;;;;6.83;2.20;;;12.80;99.90;;;;;;5052049;28;20217;-76
2023/10/05 04:12:46;;;;;;;9.30;2.60;;;12.80;99.90;;;;;;5051023;28;20206;-76
2023/10/05 04:15:12;;;;;;;8.80;2.40;;;12.80;99.90;;;;;;5052437;28;20172;-76
2023/10/05 04:17:38;;;;;;;10.23;2.63;;;12.80;99.90;;;;;;5051086;28;20210;-76
2023/10/05 04:20:17;;;;;;;8.90;2.53;;;12.80;99.90;;;;;;5051113;28;20172;-75
2023/10/05 04:22:43;;;;;;;9.23;2.40;;;12.80;99.90;;;;;;5052717;28;20202;-75
2023/10/05 04:25:08;;;;;;;9.20;2.60;;;12.80;99.90;;;;;;5052244;28;20171;-77
2023/10/05 04:27:34;;;;;;;8.17;2.30;;;12.80;99.90;;;;;;5052182;28;20191;-77
2023/10/05 04:29:59;;;;;;;10.03;2.63;;;12.70;99.90;;;;;;5052086;28;20670;-76
2023/10/05 04:32:26;;;;;;;12.23;3.17;;;12.80;99.90;;;;;;5052298;28;20191;-76
2023/10/05 04:34:52;;;;;;;12.90;2.30;;;12.80;99.90;;;;;;5052184;28;20171;-76
2023/10/05 04:37:18;;;;;;;8.77;2.60;;;12.80;99.90;;;;;;5052483;28;20167;-76
2023/10/05 04:39:43;;;;;;;7.53;2.37;;;12.80;99.90;;;;;;5053694;28;20171;-76
2023/10/05 04:42:14;;;;;;;8.40;2.40;;;12.80;99.90;;;;;;5051948;28;20195;-75
2023/10/05 04:44:41;;;;;;;8.97;2.67;;;12.80;99.90;;;;;;5052274;28;20191;-76
2023/10/05 04:47:09;;;;;;;10.40;2.40;;;12.80;99.90;;;;;;5050744;28;20171;-76
2023/10/05 04:49:36;;;;;;;10.37;2.77;;;12.80;99.90;;;;;;5051970;28;20214;-76
2023/10/05 04:52:05;;;;;;;13.50;2.73;;;12.80;99.90;;;;;;5051827;28;20263;-76
2023/10/05 04:54:34;;;;;;;9.23;2.50;;;12.80;99.90;;;;;;5052144;28;20250;-76
2023/10/05 04:57:07;;;;;;;8.60;2.40;;;12.80;99.90;;;;;;5052629;28;20167;-76
2023/10/05 05:02:12;;;;;;;8.47;2.47;;;12.80;99.90;;;;;;5052058;28;20195;-75
2023/10/05 05:04:41;;;;;;;10.17;2.40;;;12.80;99.90;;;;;;5052229;28;20190;-77
2023/10/05 05:07:08;;;;;;;11.50;2.47;;;12.80;99.90;;;;;;5054488;28;20167;-76
2023/10/05 05:09:38;;;;;;;9.13;2.53;;;12.80;99.90;;;;;;5050512;28;20179;-76
2023/10/05 05:12:08;;;;;;;12.57;3.07;;;12.80;99.90;;;;;;5051730;28;20195;-76
2023/10/05 05:14:41;;;;;;;15.93;3.13;;;12.80;99.90;;;;;;5051962;28;20687;-76
2023/10/05 05:17:11;;;;;;;10.63;2.67;;;12.80;99.90;;;;;;5050520;28;20174;-75
2023/10/05 05:19:39;;;;;;;9.30;2.70;;;12.80;99.90;;;;;;5051928;28;20259;-76
2023/10/05 05:22:05;;;;;;;10.03;2.50;;;12.70;99.90;;;;;;5053361;28;20286;-76
2023/10/05 05:24:35;;;;;;;7.33;2.03;;;12.70;99.90;;;;;;5055649;28;20195;-76
2023/10/05 05:27:03;;;;;;;9.50;2.60;;;12.70;99.90;;;;;;5055506;28;20662;-76
2023/10/05 05:29:33;;;;;;;11.87;2.60;;;12.70;99.90;;;;;;5055411;28;20168;-76
2023/10/05 05:32:11;;;;;;;10.60;2.97;;;12.70;99.90;;;;;;5054047;28;20203;-76
2023/10/05 05:34:41;;;;;;;8.13;2.70;;;12.70;99.90;;;;;;5054264;28;20167;-76
2023/10/05 05:37:28;;;;;;;8.00;2.87;;;12.70;99.90;;;;;;5055425;28;20250;-77
2023/10/05 05:39:54;;;;;;;7.00;2.33;;;12.70;99.90;;;;;;5055544;28;20202;-76
2023/10/05 05:42:20;;;;;;;10.67;2.83;;;12.70;99.90;;;;;;5053888;28;20698;-76
2023/10/05 05:44:46;;;;;;;7.67;2.87;;;12.70;99.90;;;;;;5055463;28;20179;-76
2023/10/05 05:47:14;;;;;;;10.20;2.80;;;12.70;99.90;;;;;;5055595;28;20178;-76
2023/10/05 05:49:45;;;;;;;6.33;2.37;;;12.70;99.90;;;;;;5055187;28;20167;-76
2023/10/05 05:52:12;;;;;;;11.23;2.67;;;12.70;99.90;;;;;;5054262;28;20572;-76
2023/10/05 05:54:38;;;;;;;11.50;3.03;;;12.70;99.90;;;;;;5053661;28;20176;-76
2023/10/05 05:57:07;;;;;;;8.07;2.97;;;12.60;99.90;;;;;;5054951;28;20164;-76
2023/10/05 05:59:39;;;;;;;10.40;2.80;;;12.60;99.90;;;;;;5054951;28;20178;-76
2023/10/05 06:02:08;;;;;;;11.40;2.70;;;12.60;99.90;;;;;;5054861;28;20202;-76
2023/10/05 06:04:34;;;;;;;11.07;3.10;;;12.60;99.90;;;;;;5054839;28;20262;-76
2023/10/05 06:07:01;;;;;;;9.37;3.00;;;12.60;99.90;;;;;;5054716;28;20184;-76
2023/10/05 06:09:32;;;;;;;9.37;2.90;;;12.60;99.90;;;;;;5053458;28;20674;-76
2023/10/05 06:11:59;;;;;;;12.73;2.80;;;12.60;99.90;;;;;;5053317;28;20203;-76
2023/10/05 06:14:27;;;;;;;8.83;3.07;;;12.60;99.90;;;;;;5054826;28;20174;-76
2023/10/05 06:16:53;;;;;;;9.53;3.03;;;12.70;99.90;;;;;;5054689;28;20164;-76
2023/10/05 06:19:18;;;;;;;11.90;3.03;;;12.70;99.90;;;;;;5054636;28;20598;-76
2023/10/05 06:21:45;;;;;;;13.17;3.30;;;12.70;99.90;;;;;;5054615;28;20192;-76
2023/10/05 06:24:10;;;;;;;10.43;2.93;;;12.80;99.90;;;;;;5053292;28;20172;-76
2023/10/05 06:26:38;;;;;;;9.97;2.53;;;12.80;99.90;;;;;;5055005;28;20191;-76
2023/10/05 06:29:05;;;;;;;11.80;2.87;;;12.80;99.90;;;;;;5054608;28;20266;-76
2023/10/05 06:31:30;;;;;;;8.63;2.87;;;12.80;99.90;;;;;;5054208;28;20187;-77
2023/10/05 06:33:56;;;;;;;7.07;2.87;;;12.90;99.90;;;;;;5052037;28;20243;-76
2023/10/05 06:36:22;;;;;;;10.40;2.93;;;12.90;99.90;;;;;;5054317;28;20604;-76
2023/10/05 06:38:49;;;;;;;10.03;2.47;;;12.90;99.90;;;;;;5054407;28;20168;-75
2023/10/05 06:41:19;;;;;;;7.93;2.90;;;13.00;99.90;;;;;;5052805;28;20229;-76
2023/10/05 06:43:46;;;;;;;9.63;2.90;;;13.00;99.90;;;;;;5054514;28;20646;-76
2023/10/05 06:46:17;;;;;;;12.70;2.70;;;13.00;99.90;;;;;;5054007;28;20172;-76
2023/10/05 06:48:43;;;;;;;8.60;2.90;;;13.00;99.90;;;;;;5054038;28;20184;-76
2023/10/05 06:51:09;;;;;;;8.83;3.00;;;13.10;99.90;;;;;;5053985;28;20176;-76
2023/10/05 06:53:37;;;;;;;13.03;3.27;;;13.10;99.90;;;;;;5053816;28;20197;-76
2023/10/05 06:56:03;;;;;;;15.07;3.27;;;13.10;99.90;;;;;;5053885;28;20160;-76
2023/10/05 06:58:28;;;;;;;8.50;2.70;;;13.20;99.90;;;;;;5052471;28;20270;-76
2023/10/05 07:00:54;;;;;;;10.43;2.90;;;13.20;99.90;;;;;;5052518;28;20175;-74
2023/10/05 07:03:20;;;;;;;12.83;3.03;;;13.20;99.90;;;;;;5052424;28;20206;-76
2023/10/05 07:05:46;;;;;;;8.77;2.90;;;13.20;99.90;;;;;;5053936;28;20168;-76
2023/10/05 07:08:14;;;;;;;9.27;2.90;;;13.30;99.90;;;;;;5053702;28;20167;-76
2023/10/05 07:10:40;;;;;;;11.27;2.90;;;13.20;99.90;;;;;;5053720;28;20163;-76
2023/10/05 07:13:08;;;;;;;6.87;2.73;;;13.30;99.90;;;;;;5052121;28;20199;-76
2023/10/05 07:15:34;;;;;;;9.63;3.10;;;13.30;99.90;;;;;;5052131;28;20255;-76
2023/10/05 07:18:00;;;;;;;6.67;2.90;;;13.40;99.90;;;;;;5052105;28;20250;-76
2023/10/05 07:20:27;;;;;;;9.47;2.90;;;13.40;99.90;;;;;;5053748;28;20632;-76
2023/10/05 07:22:53;;;;;;;7.63;2.87;;;13.40;99.90;;;;;;5053272;28;20187;-76
2023/10/05 07:25:18;;;;;;;10.17;2.80;;;13.40;99.90;;;;;;5053340;28;20254;-76
2023/10/05 07:27:44;;;;;;;14.17;3.23;;;13.40;40.40;;;;;;5051944;28;20179;-76
2023/10/05 07:30:10;;;;;;;8.90;2.60;;;13.50;27.60;;;;;;5053043;28;20234;-76
2023/10/05 07:32:36;;;;;;;11.53;2.93;;;13.50;1.00;;;;;;5053105;28;20245;-76
2023/10/05 07:35:05;;;;;;;9.53;2.93;;;13.60;3.70;;;;;;5053271;28;20536;-76
2023/10/05 07:37:31;;;;;;;9.17;2.77;;;13.50;1.00;;;;;;5053170;28;20168;-77
2023/10/05 07:39:58;;;;;;;9.73;2.63;;;13.60;1.00;;;;;;5053577;28;20505;-76
2023/10/05 07:42:24;;;;;;;11.33;3.13;;;13.60;1.00;;;;;;5053045;28;20554;-76
2023/10/05 07:44:50;;;;;;;11.93;3.03;;;13.60;1.00;;;;;;5052781;28;20186;-77
2023/10/05 07:47:16;;;;;;;14.60;2.87;;;13.70;1.00;;;;;;5052875;28;20172;-76
2023/10/05 07:49:41;;;;;;;9.10;3.20;;;13.70;1.00;;;;;;5051442;28;20175;-76
2023/10/05 07:52:09;;;;;;;9.50;3.20;;;13.70;1.00;;;;;;5052643;28;20208;-77
2023/10/05 07:54:37;;;;;;;8.93;2.83;;;13.70;1.00;;;;;;5052955;28;20647;-76
2023/10/05 07:57:04;;;;;;;9.17;2.87;;;13.80;1.00;;;;;;5051353;28;20168;-76
2023/10/05 07:59:29;;;;;;;11.97;2.70;;;13.80;1.00;;;;;;5052907;28;20171;-77
2023/10/05 08:01:57;;;;;;;9.17;2.80;;;13.90;1.00;;;;;;5051245;28;20198;-77
2023/10/05 08:04:23;;;;;;;9.40;2.87;;;13.90;1.00;;;;;;5052836;28;20171;-76
2023/10/05 08:06:50;;;;;;;10.93;2.90;;;13.90;99.90;;;;;;5052617;28;20543;-76
2023/10/05 08:09:15;;;;;;;10.20;3.40;;;14.00;99.90;;;;;;5052505;28;20176;-76
2023/10/05 08:11:44;;;;;;;13.53;3.63;;;14.00;99.90;;;;;;5052887;28;20267;-76
2023/10/05 08:14:11;;;;;;;8.93;3.37;;;14.00;99.90;;;;;;5052634;28;20313;-76
2023/10/05 08:16:37;;;;;;;7.40;2.70;;;14.10;99.90;;;;;;5052418;28;20246;-76
2023/10/05 08:19:05;;;;;;;12.83;3.30;;;14.10;1.00;;;;;;5051280;28;20480;-76
2023/10/05 08:21:31;;;;;;;8.60;2.60;;;14.10;1.00;;;;;;5052633;28;20168;-75
2023/10/05 08:23:56;;;;;;;8.63;2.90;;;14.20;1.00;;;;;;5052255;28;20183;-76
2023/10/05 08:26:22;;;;;;;10.60;3.00;;;14.20;1.00;;;;;;5050963;28;20171;-76
2023/10/05 08:28:49;;;;;;;10.73;2.50;;;14.30;1.00;;;;;;5050841;28;20183;-77
2023/10/05 08:31:18;;;;;;;11.17;2.60;;;14.30;1.00;;;;;;5050765;28;20187;-77
2023/10/05 08:33:43;;;;;;;10.23;3.20;;;14.30;1.00;;;;;;5051944;28;20679;-76
2023/10/05 08:36:14;;;;;;;11.30;3.40;;;14.40;1.00;;;;;;5051173;28;20197;-77
2023/10/05 08:38:40;;;;;;;9.07;2.93;;;14.40;1.00;;;;;;5052098;28;20233;-77
2023/10/05 08:41:11;;;;;;;13.20;3.47;;;14.40;1.00;;;;;;5052227;28;20172;-77
2023/10/05 08:43:40;;;;;;;7.67;2.77;;;14.50;99.90;;;;;;5050590;28;20195;-76
2023/10/05 08:46:14;;;;;;;12.27;3.03;;;14.60;99.90;;;;;;5050598;28;20179;-77
2023/10/05 08:48:40;;;;;;;10.70;3.00;;;14.50;99.90;;;;;;5051920;28;20233;-77
2023/10/05 08:51:11;;;;;;;9.73;2.90;;;14.60;1.00;;;;;;5052396;28;20167;-77
2023/10/05 08:53:50;;;;;;;9.87;3.10;;;14.70;1.00;;;;;;5051818;28;20728;-76
2023/10/05 08:56:16;;;;;;;12.93;2.93;;;14.70;1.00;;;;;;5051353;28;20158;-75
2023/10/05 08:58:46;;;;;;;9.37;3.03;;;14.80;1.00;;;;;;5050582;28;20171;-76
2023/10/05 09:01:31;;;;;;;11.33;3.20;;;14.80;99.90;;;;;;5050747;28;20571;-76
2023/10/05 09:06:56;;;;;;;10.57;2.77;;;15.00;1.00;;;;;;5052231;28;20159;-77
2023/10/05 09:10:18;;;;;;;10.13;2.90;;;15.10;99.90;;;;;;5052211;28;20187;-76
2023/10/05 09:12:34;;;;;;;9.97;3.27;;;15.10;99.90;;;;;;5051531;28;20294;-76
2023/10/05 09:15:05;;;;;;;10.03;3.40;;;15.20;1.00;;;;;;5051729;28;20162;-77
2023/10/05 09:17:34;;;;;;;11.30;3.00;;;15.20;1.00;;;;;;5051681;28;20586;-76
2023/10/05 09:20:21;;;;;;;9.93;2.90;;;15.20;99.90;;;;;;5051667;28;20174;-77
2023/10/05 09:22:56;;;;;;;7.63;2.93;;;15.30;1.00;;;;;;5051632;28;20321;-77
2023/10/05 09:25:26;;;;;;;10.33;2.80;;;15.30;99.90;;;;;;5050338;28;20640;-77
2023/10/05 09:27:55;;;;;;;10.97;3.00;;;15.30;99.90;;;;;;5051639;28;20202;-76
2023/10/05 09:30:22;;;;;;;10.33;3.17;;;15.40;99.90;;;;;;5051547;28;20658;-76
2023/10/05 09:32:48;;;;;;;7.17;2.30;;;15.40;1.00;;;;;;5051395;28;20199;-77
2023/10/05 09:35:27;;;;;;;9.50;2.63;;;15.50;80.20;;;;;;5051513;28;20174;-75
2023/10/05 09:37:56;;;;;;;9.27;2.63;;;15.60;1.00;;;;;;5051725;28;20178;-77
2023/10/05 09:40:22;;;;;;;8.20;2.83;;;15.60;1.00;;;;;;5051495;28;20655;-76
2023/10/05 09:42:53;;;;;;;7.27;2.43;;;15.70;66.50;;;;;;5050052;28;20222;-76
2023/10/05 09:45:20;;;;;;;12.03;3.47;;;15.70;1.00;;;;;;5050139;28;20631;-76
2023/10/05 09:47:47;;;;;;;7.27;2.57;;;15.80;99.90;;;;;;5050139;28;20179;-77
2023/10/05 09:50:15;;;;;;;6.73;2.10;;;15.80;1.00;;;;;;5051401;28;20647;-76
2023/10/05 09:52:46;;;;;;;7.53;2.37;;;15.80;86.60;;;;;;5051257;28;20192;-77
2023/10/05 09:55:12;;;;;;;6.97;2.57;;;15.80;99.90;;;;;;5051652;28;20611;-76
2023/10/05 09:57:46;;;;;;;10.87;2.80;;;15.80;87.30;;;;;;5051326;28;20172;-76
2023/10/05 10:00:30;;;;;;;10.70;2.70;;;15.90;99.90;;;;;;5051747;28;20239;-76
2023/10/05 10:02:58;;;;;;;12.00;3.27;;;15.90;1.00;;;;;;5049974;28;20200;-76
2023/10/05 10:05:30;;;;;;;10.20;2.93;;;16.00;99.90;;;;;;5049884;28;20180;-76
2023/10/05 10:08:09;;;;;;;11.50;2.60;;;15.90;1.00;;;;;;5052219;28;20243;-77
2023/10/05 10:10:37;;;;;;;13.57;2.90;;;16.00;19.40;;;;;;5053902;28;20608;-77
2023/10/05 10:13:11;;;;;;;11.13;2.97;;;15.90;1.00;;;;;;5053694;28;20286;-77
2023/10/05 10:15:45;;;;;;;9.03;2.50;;;15.90;1.00;;;;;;5053267;28;20195;-76
2023/10/05 10:18:14;;;;;;;8.53;2.33;;;15.90;1.00;;;;;;5053369;28;20541;-77
2023/10/05 10:20:45;;;;;;;8.10;2.60;;;15.90;1.00;;;;;;5054603;28;20171;-77
2023/10/05 10:23:19;;;;;;;10.47;2.43;;;15.90;1.00;;;;;;5054503;28;20260;-77
2023/10/05 10:25:45;;;;;;;11.40;2.87;;;15.90;1.00;;;;;;5054550;28;20160;-77
2023/10/05 10:28:16;;;;;;;10.00;3.23;;;16.00;1.00;;;;;;5054482;28;20180;-76
2023/10/05 10:31:11;;;;;;;8.30;2.57;;;16.00;1.00;;;;;;5054431;28;20207;-76
2023/10/05 10:33:37;;;;;;;7.57;2.90;;;16.00;1.00;;;;;;5054144;28;20662;-77
2023/10/05 10:36:06;;;;;;;9.37;3.43;;;16.00;1.00;;;;;;5052928;28;20179;-76
2023/10/05 10:38:32;;;;;;;6.40;2.80;;;16.00;1.00;;;;;;5054207;28;20210;-75
2023/10/05 10:41:09;;;;;;;7.70;2.60;;;16.00;99.90;;;;;;5054269;28;20644;-76
2023/10/05 10:43:36;;;;;;;9.13;2.63;;;16.10;99.90;;;;;;5054363;28;20191;-76
2023/10/05 10:46:12;;;;;;;10.00;2.30;;;15.90;99.90;;;;;;5052829;28;20275;-77
2023/10/05 10:48:58;;;;;;;7.20;2.50;;;16.20;1.00;;;;;;5054322;28;20156;-77
2023/10/05 10:51:37;;;;;;;12.47;2.63;;;16.20;1.00;;;;;;5054061;28;20210;-76
2023/10/05 10:54:16;;;;;;;11.00;2.03;;;16.20;1.00;;;;;;5052700;28;20663;-77
2023/10/05 10:56:42;;;;;;;11.60;2.00;;;16.20;1.00;;;;;;5052877;28;20174;-77
2023/10/05 10:59:11;;;;;;;6.33;2.40;;;16.20;99.90;;;;;;5052592;28;20167;-77
2023/10/05 11:01:43;;;;;;;8.37;2.33;;;16.30;99.90;;;;;;5052483;28;20183;-76
2023/10/05 11:04:26;;;;;;;7.53;2.37;;;16.20;99.90;;;;;;5052551;28;20176;-77
2023/10/05 11:07:05;;;;;;;9.53;2.50;;;16.30;1.00;;;;;;5052473;28;20186;-77
2023/10/05 11:09:36;;;;;;;7.07;2.10;;;16.50;12.50;;;;;;5053762;28;20156;-76
2023/10/05 11:12:13;;;;;;;7.83;2.50;;;16.30;99.90;;;;;;5053576;28;20270;-77
2023/10/05 11:14:43;;;;;;;6.50;2.40;;;16.30;90.70;;;;;;5053666;28;20151;-77
2023/10/05 11:17:30;;;;;;;10.50;2.20;;;16.40;56.70;;;;;;5052234;28;20176;-76
2023/10/05 11:19:58;;;;;;;7.57;2.67;;;16.40;1.00;;;;;;5053133;28;20151;-76
2023/10/05 11:22:23;;;;;;;7.77;2.53;;;16.40;21.10;;;;;;5053429;28;20219;-77
2023/10/05 11:25:14;;;;;;;11.50;3.00;;;16.40;1.00;;;;;;5053348;28;20600;-76
2023/10/05 11:27:45;;;;;;;11.77;2.50;;;16.40;99.90;;;;;;5053747;28;20160;-77
2023/10/05 11:30:18;;;;;;;8.40;2.47;;;16.50;99.90;;;;;;5051962;28;20195;-77
2023/10/05 11:32:45;;;;;;;7.80;2.50;;;16.60;1.00;;;;;;5053262;28;20542;-77
2023/10/05 11:35:13;;;;;;;6.63;2.30;;;16.60;1.00;;;;;;5053321;28;20172;-77
2023/10/05 11:37:39;;;;;;;6.87;2.20;;;16.70;1.00;;;;;;5051763;28;20167;-77
2023/10/05 11:40:07;;;;;;;9.07;2.43;;;16.70;1.00;;;;;;5053145;28;20213;-77
2023/10/05 11:42:41;;;;;;;8.73;2.37;;;16.80;1.00;;;;;;5051789;28;20196;-76
2023/10/05 11:45:16;;;;;;;11.70;2.70;;;16.80;99.90;;;;;;5053211;28;20167;-77
2023/10/05 11:47:47;;;;;;;13.83;2.53;;;16.90;1.00;;;;;;5053367;28;20261;-77
2023/10/05 11:50:25;;;;;;;8.47;2.50;;;16.90;1.00;;;;;;5053153;28;20163;-77
2023/10/05 11:52:54;;;;;;;11.90;2.43;;;17.00;1.00;;;;;;5051782;28;20210;-76
2023/10/05 11:55:20;;;;;;;9.40;2.57;;;17.10;37.20;;;;;;5052901;28;20194;-77
2023/10/05 11:57:46;;;;;;;6.27;2.03;;;17.20;99.90;;;;;;5052835;28;20174;-77
2023/10/05 12:00:16;;;;;;;6.47;1.97;;;17.20;99.90;;;;;;5052971;28;20182;-77
2023/10/05 12:02:43;;;;;;;10.30;2.53;;;17.30;1.00;;;;;;5052750;28;20207;-77
2023/10/05 12:05:10;;;;;;;10.87;3.00;;;17.60;1.00;;;;;;5052986;28;20168;-77
2023/10/05 12:07:38;;;;;;;11.07;2.27;;;17.30;99.90;;;;;;5052770;28;20206;-75
2023/10/05 12:10:09;;;;;;;7.57;2.27;;;17.40;99.90;;;;;;5051409;28;20259;-76
2023/10/05 12:12:35;;;;;;;15.50;3.10;;;17.50;1.00;;;;;;5052697;28;20215;-76
2023/10/05 12:15:12;;;;;;;5.97;2.30;;;17.60;99.90;;;;;;5051768;28;20171;-77
2023/10/05 12:17:39;;;;;;;11.90;2.23;;;17.60;99.90;;;;;;5051105;28;20681;-77
2023/10/05 12:20:07;;;;;;;9.53;2.80;;;17.70;1.00;;;;;;5051103;28;20524;-77
2023/10/05 12:22:33;;;;;;;6.50;2.00;;;17.70;99.90;;;;;;5051034;28;20200;-76
2023/10/05 12:24:59;;;;;;;7.47;2.33;;;17.70;81.30;;;;;;5052375;28;20178;-77
2023/10/05 12:27:26;;;;;;;7.00;2.00;;;17.60;99.90;;;;;;5052337;28;20171;-77
2023/10/05 12:29:52;;;;;;;10.53;2.10;;;17.60;1.00;;;;;;5051900;28;20187;-76
2023/10/05 12:32:18;;;;;;;5.17;1.97;;;17.60;99.90;;;;;;5051849;28;20249;-76
2023/10/05 12:34:47;;;;;;;8.93;1.73;;;17.60;1.00;;;;;;5050908;28;20584;-77
2023/10/05 12:37:17;;;;;;;6.50;2.20;;;17.60;99.90;;;;;;5052202;28;20258;-77
2023/10/05 12:39:44;;;;;;;8.27;2.20;;;17.60;99.90;;;;;;5052616;28;20216;-77
2023/10/05 12:42:10;;;;;;;8.63;1.90;;;17.60;99.90;;;;;;5052339;28;20227;-77
2023/10/05 12:44:36;;;;;;;6.50;2.27;;;17.60;99.90;;;;;;5052193;28;20241;-76
2023/10/05 12:47:07;;;;;;;11.17;2.07;;;17.60;1.00;;;;;;5052048;28;20512;-76
2023/10/05 12:49:33;;;;;;;8.30;1.93;;;17.50;99.90;;;;;;5052246;28;20156;-77
2023/10/05 12:51:59;;;;;;;8.10;2.27;;;17.60;99.90;;;;;;5051869;28;20241;-76
2023/10/05 12:54:34;;;;;;;12.03;2.63;;;17.70;99.90;;;;;;5051962;28;20168;-76
2023/10/05 12:57:09;;;;;;;5.40;1.97;;;17.80;1.00;;;;;;5052107;28;20193;-77
2023/10/05 12:59:35;;;;;;;5.43;2.17;;;17.80;1.00;;;;;;5051946;28;20151;-75
2023/10/05 13:02:10;;;;;;;6.13;1.90;;;18.10;1.00;;;;;;5051710;28;20257;-77
2023/10/05 13:04:36;;;;;;;6.27;1.73;;;18.10;1.00;;;;;;5052261;28;20239;-76
2023/10/05 13:07:04;;;;;;;10.90;1.93;;;18.00;1.00;;;;;;5050447;28;20274;-77
2023/10/05 13:09:32;;;;;;;7.67;2.00;;;18.20;1.00;;;;;;5051756;28;20725;-77
2023/10/05 13:11:58;;;;;;;7.13;1.90;;;18.30;1.00;;;;;;5051699;28;20541;-77
2023/10/05 13:14:24;;;;;;;8.73;2.17;;;18.40;1.00;;;;;;5050523;28;20172;-77
2023/10/05 13:16:54;;;;;;;8.20;2.13;;;18.30;99.90;;;;;;5051911;28;20589;-76